Time;durP1;ratioP1;P1;durP2;ratioP2;P2;SDS_P1;SDS_P2;PMS_P1;PMS_P2;Temp;Humidity;BMP_temperature;BMP_pressure;BME280_temperature;BME280_humidity;BME280_pressure;Samples;Min_cycle;Max_cycle;Signal;HPM_P1;HPM_P2
2021/12/01 00:01:39;;;;;;;;;;;;;;;10.97;100.00;96496.03;5056097;28;20253;-79
2021/12/01 00:04:07;;;;;;;;;;;;;;;11.40;100.00;96503.50;5055700;28;20020;-79
2021/12/01 00:06:35;;;;;;;;;;;;;;;11.22;100.00;96484.19;5055519;28;19928;-79
2021/12/01 00:09:04;;;;;;;;;;;;;;;11.34;100.00;96485.09;5054654;28;19925;-79
2021/12/01 00:11:31;;;;;;;;;;;;;;;11.34;100.00;96477.50;5037919;28;19924;-79
2021/12/01 00:13:58;;;;;;;;;;;;;;;11.12;100.00;96485.59;5055729;28;19928;-79
2021/12/01 00:16:25;;;;;;;;;;;;;;;10.95;100.00;96409.94;5088050;28;20395;-79
2021/12/01 00:18:52;;;;;;;;;;;;;;;10.93;100.00;96467.56;5055567;28;19932;-79
2021/12/01 00:21:20;;;;;;;;;;;;;;;11.02;100.00;96473.00;5055274;28;20348;-79
2021/12/01 00:23:47;;;;;;;;;;;;;;;10.98;100.00;96471.69;5087779;28;19974;-79
2021/12/01 00:26:14;;;;;;;;;;;;;;;11.14;100.00;96471.13;5055462;28;19929;-79
2021/12/01 00:28:41;;;;;;;;;;;;;;;10.78;100.00;96489.19;5055351;28;19925;-79
2021/12/01 00:31:08;;;;;;;;;;;;;;;10.98;100.00;96494.78;5054311;28;19929;-79
2021/12/01 00:33:36;;;;;;;;;;;;;;;10.90;100.00;96497.22;5055289;28;19924;-79
2021/12/01 00:36:03;;;;;;;;;;;;;;;10.72;100.00;96499.50;5054043;28;19932;-79
2021/12/01 00:38:30;;;;;;;;;;;;;;;10.83;100.00;96477.31;5055316;28;19925;-80
2021/12/01 00:40:58;;;;;;;;;;;;;;;10.59;100.00;96465.53;5055130;28;19998;-79
2021/12/01 00:43:25;;;;;;;;;;;;;;;10.79;100.00;96499.09;5087182;28;19924;-79
2021/12/01 00:45:56;;;;;;;;;;;;;;;10.52;100.00;96493.88;5055078;28;19925;-79
2021/12/01 00:48:24;;;;;;;;;;;;;;;10.46;100.00;96502.16;5055049;28;19925;-79
2021/12/01 00:50:54;;;;;;;;;;;;;;;10.11;100.00;96467.06;5037216;28;20010;-79
2021/12/01 00:53:20;;;;;;;;;;;;;;;10.15;100.00;96484.38;5054913;28;19929;-79
2021/12/01 00:55:48;;;;;;;;;;;;;;;10.45;100.00;96480.31;5087142;28;20013;-79
2021/12/01 00:58:16;;;;;;;;;;;;;;;10.60;100.00;96492.22;5087194;28;19994;-79
2021/12/01 01:00:43;;;;;;;;;;;;;;;10.43;100.00;96491.19;5054949;28;19925;-79
2021/12/01 01:03:10;;;;;;;;;;;;;;;10.12;100.00;96483.31;5053358;28;20269;-79
2021/12/01 01:05:38;;;;;;;;;;;;;;;10.18;100.00;96491.78;5054941;28;19925;-79
2021/12/01 01:08:05;;;;;;;;;;;;;;;9.76;100.00;96480.91;5053461;28;20303;-79
2021/12/01 01:18:40;;;;;;;;;;;;;;;9.85;100.00;96496.75;5054073;28;20367;-79
2021/12/01 01:21:07;;;;;;;;;;;;;;;9.44;100.00;96461.53;5054261;28;20004;-79
2021/12/01 01:23:35;;;;;;;;;;;;;;;9.48;100.00;96496.31;5053979;28;19931;-79
2021/12/01 01:26:04;;;;;;;;;;;;;;;9.50;100.00;96409.44;5053999;28;19951;-79
2021/12/01 01:28:31;;;;;;;;;;;;;;;9.27;100.00;96479.94;5086481;28;19925;-79
2021/12/01 01:30:58;;;;;;;;;;;;;;;9.44;100.00;96478.25;5056973;28;19948;-79
2021/12/01 01:33:25;;;;;;;;;;;;;;;9.47;100.00;96491.22;5055411;28;20015;-78
2021/12/01 01:35:52;;;;;;;;;;;;;;;9.14;100.00;96471.84;5057012;28;20295;-79
2021/12/01 01:38:20;;;;;;;;;;;;;;;9.35;100.00;96481.09;5056391;28;19925;-79
2021/12/01 01:40:47;;;;;;;;;;;;;;;9.15;100.00;96490.06;5089658;28;19925;-79
2021/12/01 01:43:14;;;;;;;;;;;;;;;9.10;100.00;96499.84;5088731;28;20406;-79
2021/12/01 01:45:45;;;;;;;;;;;;;;;8.83;100.00;96466.63;5054060;28;19948;-78
2021/12/01 01:48:14;;;;;;;;;;;;;;;8.90;100.00;96473.88;5069491;28;19932;-78
2021/12/01 01:50:42;;;;;;;;;;;;;;;8.89;100.00;96442.47;5054136;28;19925;-78
2021/12/01 01:53:14;;;;;;;;;;;;;;;8.56;100.00;96404.78;5054518;28;19928;-78
2021/12/01 01:55:42;;;;;;;;;;;;;;;8.74;100.00;96452.78;5069524;28;20363;-79
2021/12/01 01:58:10;;;;;;;;;;;;;;;8.96;100.00;96472.75;5053932;28;20011;-79
2021/12/01 02:00:51;;;;;;;;;;;;;;;8.76;100.00;96436.38;5069892;28;19998;-79
2021/12/01 02:03:20;;;;;;;;;;;;;;;9.19;100.00;96407.13;5052402;28;20384;-79
2021/12/01 02:05:47;;;;;;;;;;;;;;;8.82;100.00;96440.03;5086307;28;20264;-79
2021/12/01 02:08:17;;;;;;;;;;;;;;;8.73;100.00;96437.31;5069304;28;19924;-78
2021/12/01 02:10:46;;;;;;;;;;;;;;;8.62;100.00;96439.06;5052822;28;19947;-79
2021/12/01 02:13:14;;;;;;;;;;;;;;;8.56;100.00;96407.56;5053773;28;19932;-79
2021/12/01 02:15:42;;;;;;;;;;;;;;;8.77;100.00;96442.69;5053524;28;20356;-79
2021/12/01 02:18:09;;;;;;;;;;;;;;;8.75;100.00;96431.28;5053865;28;20279;-79
2021/12/01 02:20:36;;;;;;;;;;;;;;;8.25;100.00;96432.97;5052849;28;19925;-79
2021/12/01 02:23:03;;;;;;;;;;;;;;;8.23;100.00;96443.78;5052609;28;20296;-79
2021/12/01 02:25:31;;;;;;;;;;;;;;;7.99;100.00;96467.94;5086096;28;20391;-79
2021/12/01 02:27:58;;;;;;;;;;;;;;;8.05;100.00;96446.59;5053750;28;20015;-79
2021/12/01 02:30:25;;;;;;;;;;;;;;;7.86;100.00;96453.44;5053529;28;19931;-79
2021/12/01 02:32:54;;;;;;;;;;;;;;;7.88;100.00;96450.97;5084947;28;19925;-79
2021/12/01 02:35:21;;;;;;;;;;;;;;;7.77;100.00;96456.25;5086052;28;19932;-79
2021/12/01 02:37:49;;;;;;;;;;;;;;;7.69;100.00;96482.06;5052445;28;20431;-79
2021/12/01 02:40:16;;;;;;;;;;;;;;;7.84;100.00;96460.72;5052411;28;19968;-79
2021/12/01 02:42:43;;;;;;;;;;;;;;;7.55;100.00;96466.81;5053495;28;19925;-79
2021/12/01 02:45:10;;;;;;;4.35;0.90;;;;;;;7.41;100.00;96511.88;5085053;28;19982;-79
2021/12/01 02:47:37;;;;;;;3.97;0.70;;;;;;;7.35;100.00;96531.19;5053158;28;20091;-78
2021/12/01 02:50:06;;;;;;;1.38;0.60;;;;;;;7.37;100.00;96569.59;5053064;28;20480;-79
2021/12/01 02:52:35;;;;;;;3.28;0.82;;;;;;;7.08;100.00;96538.72;5085370;28;20472;-79
2021/12/01 02:55:09;;;;;;;1.80;0.60;;;;;;;7.19;100.00;96600.13;5052850;28;20044;-79
2021/12/01 02:57:46;;;;;;;1.45;0.60;;;;;;;7.12;100.00;96614.28;5053071;28;20037;-79
2021/12/01 03:00:15;;;;;;;0.50;0.50;;;;;;;7.23;100.00;96634.06;5056550;28;20037;-78
2021/12/01 03:02:44;;;;;;;;;;;;;;;7.05;100.00;96684.00;5057082;28;20041;-79
2021/12/01 03:05:12;;;;;;;0.75;0.47;;;;;;;6.88;100.00;96666.03;5056628;28;19920;-79
2021/12/01 03:07:41;;;;;;;1.00;0.60;;;;;;;7.22;100.00;96683.28;5056569;28;20037;-79
2021/12/01 03:10:08;;;;;;;1.08;0.85;;;;;;;7.54;100.00;96686.78;5055478;28;20048;-79
2021/12/01 03:12:37;;;;;;;0.50;0.50;;;;;;;7.41;100.00;96695.22;5056177;28;20053;-78
2021/12/01 03:15:06;;;;;;;0.40;0.40;;;;;;;7.35;100.00;96683.94;5070629;28;20044;-78
2021/12/01 03:17:33;;;;;;;1.48;0.60;;;;;;;7.53;100.00;96691.53;5065816;28;20032;-79
2021/12/01 03:20:02;;;;;;;0.60;0.50;;;;;;;7.41;100.00;96723.00;5056201;28;20044;-79
2021/12/01 03:22:29;;;;;;;2.72;1.10;;;;;;;7.35;100.00;96705.38;5056140;28;20036;-79
2021/12/01 03:24:57;;;;;;;2.00;0.98;;;;;;;7.46;100.00;96739.06;5056023;28;20037;-79
2021/12/01 03:27:24;;;;;;;1.98;0.50;;;;;;;7.18;100.00;96720.75;5056085;28;20040;-79
2021/12/01 03:29:52;;;;;;;;;;;;;;;7.38;100.00;96746.91;5054965;28;20041;-79
2021/12/01 03:32:20;;;;;;;1.15;0.50;;;;;;;7.35;100.00;96741.50;5055932;28;20434;-79
2021/12/01 03:34:47;;;;;;;1.10;0.40;;;;;;;7.21;100.00;96742.06;5053410;28;20056;-79
2021/12/01 03:37:14;;;;;;;0.40;0.40;;;;;;;7.02;100.00;96740.44;5056071;28;20033;-79
2021/12/01 03:39:42;;;;;;;0.50;0.50;;;;;;;7.40;100.00;96777.03;5054706;28;20040;-79
2021/12/01 03:42:09;;;;;;;1.55;0.50;;;;;;;7.24;100.00;96768.91;5071255;28;20048;-79
2021/12/01 03:44:36;;;;;;;1.80;0.70;;;;;;;7.47;100.00;96782.28;5054351;28;20387;-79
2021/12/01 03:47:04;;;;;;;0.75;0.50;;;;;;;7.23;100.00;96770.16;5054426;28;20060;-79
2021/12/01 03:49:31;;;;;;;0.40;0.40;;;;;;;7.31;100.00;96769.41;5055764;28;20094;-79
2021/12/01 03:51:58;;;;;;;1.55;0.50;;;;;;;7.60;100.00;96784.97;5071019;28;20041;-79
2021/12/01 03:54:28;;;;;;;0.60;0.60;;;;;;;7.24;100.00;96757.81;5087811;28;20033;-79
2021/12/01 03:56:55;;;;;;;0.50;0.50;;;;;;;7.51;100.00;96787.72;5055207;28;20041;-79
2021/12/01 03:59:22;;;;;;;1.35;0.50;;;;;;;7.62;100.00;96793.63;5054355;28;20041;-79
2021/12/01 04:02:15;;;;;;;1.17;0.60;;;;;;;7.49;100.00;96796.50;5037420;28;20055;-79
2021/12/01 04:04:43;;;;;;;3.47;0.60;;;;;;;8.00;100.00;96778.13;5054630;28;20281;-79
2021/12/01 04:07:11;;;;;;;2.00;0.70;;;;;;;7.70;100.00;96795.66;5055334;28;20060;-79
2021/12/01 04:10:05;;;;;;;0.50;0.50;;;;;;;7.63;100.00;96789.59;5055172;28;20067;-79
2021/12/01 04:12:33;;;;;;;1.17;0.73;;;;;;;7.58;100.00;96793.75;5053552;28;20139;-79
2021/12/01 04:15:01;;;;;;;0.90;0.50;;;;;;;7.78;100.00;96812.81;5052801;28;20384;-79
2021/12/01 04:17:28;;;;;;;2.35;0.85;;;;;;;7.58;100.00;96790.19;5053853;28;20380;-79
2021/12/01 04:19:55;;;;;;;0.75;0.70;;;;;;;7.35;100.00;96786.72;5055168;28;20045;-79
2021/12/01 04:22:23;;;;;;;0.50;0.50;;;;;;;7.37;100.00;96766.81;5055013;28;20041;-79
2021/12/01 04:24:50;;;;;;;1.50;0.55;;;;;;;7.71;100.00;96786.06;5054913;28;20435;-79
2021/12/01 04:27:18;;;;;;;1.10;0.50;;;;;;;8.09;100.00;96788.50;5053587;28;20071;-79
2021/12/01 04:29:45;;;;;;;1.13;0.60;;;;;;;7.85;100.00;96782.72;5070216;28;20044;-79
2021/12/01 04:32:12;;;;;;;1.65;0.60;;;;;;;7.87;100.00;96788.59;5054853;28;20056;-78
2021/12/01 04:34:41;;;;;;;0.70;0.60;;;;;;;7.95;100.00;96789.09;5086839;28;20029;-79
2021/12/01 04:37:09;;;;;;;0.82;0.70;;;;;;;8.36;100.00;96792.09;5053648;28;20041;-79
2021/12/01 04:39:37;;;;;;;0.70;0.65;;;;;;;7.99;100.00;96793.25;5054660;28;20037;-79
2021/12/01 04:42:05;;;;;;;3.17;0.80;;;;;;;8.27;100.00;96799.69;5058357;28;20472;-79
2021/12/01 04:44:35;;;;;;;5.68;0.90;;;;;;;8.18;100.00;96796.84;5054549;28;20045;-79
2021/12/01 04:47:09;;;;;;;3.78;1.08;;;;;;;8.31;100.00;96814.19;5053239;28;20400;-79
2021/12/01 04:49:37;;;;;;;9.82;1.83;;;;;;;8.21;100.00;96791.13;5054610;28;20124;-79
2021/12/01 04:52:05;;;;;;;7.50;1.02;;;;;;;8.28;100.00;96802.00;5053333;28;20037;-79
2021/12/01 04:54:33;;;;;;;2.35;0.90;;;;;;;8.33;100.00;96787.44;5054227;28;20610;-79
2021/12/01 04:57:03;;;;;;;4.63;1.15;;;;;;;8.14;100.00;96791.44;5053052;28;20392;-79
2021/12/01 04:59:31;;;;;;;7.00;1.10;;;;;;;8.42;100.00;96806.94;5053278;28;20384;-79
2021/12/01 05:01:59;;;;;;;4.65;1.40;;;;;;;8.32;100.00;96788.69;5051943;28;20415;-79
2021/12/01 05:04:28;;;;;;;6.10;1.52;;;;;;;8.66;100.00;96785.59;5053009;28;20383;-79
2021/12/01 05:06:55;;;;;;;8.23;1.70;;;;;;;8.51;100.00;96789.47;5053092;28;20402;-79
2021/12/01 05:09:23;;;;;;;5.85;1.35;;;;;;;8.59;100.00;96804.59;5051717;28;20388;-79
2021/12/01 05:11:50;;;;;;;5.88;1.80;;;;;;;8.55;100.00;96795.66;5052653;28;20399;-79
2021/12/01 05:14:20;;;;;;;10.55;1.90;;;;;;;8.29;100.00;96781.28;5051699;28;20435;-79
2021/12/01 05:16:47;;;;;;;8.43;1.80;;;;;;;8.65;100.00;96783.28;5034995;28;20396;-79
2021/12/01 05:19:15;;;;;;;11.65;1.85;;;;;;;8.59;100.00;96788.69;5054005;28;20045;-79
2021/12/01 05:21:42;;;;;;;4.85;1.73;;;;;;;8.48;100.00;96787.63;5053503;28;20341;-79
2021/12/01 05:24:09;;;;;;;10.65;2.90;;;;;;;8.73;100.00;96812.34;5052470;28;20041;-79
2021/12/01 05:26:37;;;;;;;6.85;2.00;;;;;;;8.80;100.00;96782.19;5053780;28;20067;-79
2021/12/01 05:29:05;;;;;;;10.38;2.00;;;;;;;8.65;100.00;96803.53;5052667;28;20096;-79
2021/12/01 05:31:33;;;;;;;6.05;1.70;;;;;;;8.54;100.00;96811.56;5053841;28;20048;-79
2021/12/01 05:34:00;;;;;;;6.80;1.70;;;;;;;8.58;100.00;96792.72;5052391;28;20148;-79
2021/12/01 05:36:28;;;;;;;6.65;1.80;;;;;;;8.93;100.00;96829.34;5053738;28;20052;-79
2021/12/01 05:38:55;;;;;;;8.00;2.13;;;;;;;8.40;100.00;96801.06;5053352;28;20044;-79
2021/12/01 05:41:22;;;;;;;17.35;2.20;;;;;;;8.74;100.00;96806.31;5052484;28;20048;-79
2021/12/01 05:44:14;;;;;;;8.55;1.90;;;;;;;8.86;100.00;96818.53;5052305;28;20036;-78
2021/12/01 05:46:42;;;;;;;8.85;2.13;;;;;;;8.61;100.00;96830.75;5053455;28;20041;-79
2021/12/01 05:49:09;;;;;;;11.15;2.58;;;;;;;8.43;100.00;96813.28;5053579;28;20037;-79
2021/12/01 05:51:36;;;;;;;11.73;2.22;;;;;;;8.83;100.00;96816.69;5053705;28;20048;-78
2021/12/01 05:54:03;;;;;;;12.52;2.17;;;;;;;9.01;100.00;96856.41;5051779;28;20426;-78
2021/12/01 05:56:31;;;;;;;11.40;1.70;;;;;;;8.97;100.00;96830.75;5052277;28;20060;-79
2021/12/01 05:58:58;;;;;;;19.80;2.47;;;;;;;8.74;100.00;96822.22;5052354;28;20518;-79
2021/12/01 06:01:25;;;;;;;;;;;;;;;8.77;100.00;96847.16;5053643;28;20365;-79
2021/12/01 06:03:52;;;;;;;13.80;2.60;;;;;;;8.82;100.00;96818.69;5053567;28;20079;-79
2021/12/01 06:06:20;;;;;;;14.35;2.08;;;;;;;8.87;100.00;96815.28;5053261;28;20553;-79
2021/12/01 06:08:47;;;;;;;23.85;4.13;;;;;;;8.87;100.00;96809.72;5053300;28;20068;-78
2021/12/01 06:11:14;;;;;;;27.92;2.70;;;;;;;9.06;100.00;96811.22;5053248;28;20103;-79
2021/12/01 06:13:43;;;;;;;12.50;2.75;;;;;;;8.86;100.00;96818.53;5052016;28;20033;-79
2021/12/01 06:16:11;;;;;;;;;;;;;;;9.08;100.00;96814.31;5052469;28;20502;-79
2021/12/01 06:18:38;;;;;;;13.70;2.30;;;;;;;8.85;100.00;96828.91;5052262;28;19939;-79
2021/12/01 06:21:05;;;;;;;;;;;;;;;8.77;100.00;96810.94;5052498;28;20082;-79
2021/12/01 06:23:32;;;;;;;;;;;;;;;9.08;100.00;96797.63;5053532;28;19921;-79
2021/12/01 06:26:00;;;;;;;;;;;;;;;8.97;100.00;96800.09;5053770;28;20336;-79
2021/12/01 06:28:28;;;;;;;;;;;;;;;9.07;100.00;96821.13;5053757;28;20303;-79
2021/12/01 06:30:55;;;;;;;;;;;;;;;9.14;100.00;96822.81;5053640;28;19925;-79
2021/12/01 06:33:22;;;;;;;;;;;;;;;9.07;100.00;96804.41;5053712;28;19971;-79
2021/12/01 06:35:51;;;;;;;;;;;;;;;9.01;100.00;96799.94;5057747;28;20287;-79
2021/12/01 06:38:19;;;;;;;;;;;;;;;8.97;100.00;96807.69;5057542;28;19921;-79
2021/12/01 06:40:47;;;;;;;;;;;;;;;8.83;100.00;96813.91;5057729;28;19920;-79
2021/12/01 06:43:14;;;;;;;;;;;;;;;8.82;100.00;96827.03;5056265;28;19934;-79
2021/12/01 06:45:41;;;;;;;;;;;;;;;8.88;100.00;96822.41;5057595;28;20310;-79
2021/12/01 06:48:08;;;;;;;;;;;;;;;8.74;100.00;96817.44;5056226;28;20489;-79
2021/12/01 06:50:35;;;;;;;;;;;;;;;8.80;100.00;96812.81;5075944;28;19920;-78
2021/12/01 06:53:03;;;;;;;;;;;;;;;8.64;100.00;96824.25;5076508;28;20011;-79
2021/12/01 06:55:30;;;;;;;;;;;;;;;8.50;100.00;96796.25;5077093;28;19920;-79
2021/12/01 06:57:59;;;;;;;;;;;;;;;8.65;100.00;96772.13;5070169;28;19991;-78
2021/12/01 07:00:26;;;;;;;;;;;;;;;8.38;100.00;96783.28;5057513;28;19920;-79
2021/12/01 07:02:53;;;;;;;;;;;;;;;8.81;100.00;96835.88;5076316;28;19920;-79
2021/12/01 07:05:20;;;;;;;;;;;;;;;8.50;100.00;96812.97;5103694;28;19921;-77
2021/12/01 07:07:47;;;;;;;;;;;;;;;8.52;100.00;96808.50;5069870;28;20360;-77
2021/12/01 07:10:15;;;;;;;;;;;;;;;8.45;100.00;96822.69;5068365;28;19920;-76
2021/12/01 07:12:42;;;;;;;;;;;;;;;8.45;100.00;96816.38;5074753;28;19927;-77
2021/12/01 07:15:11;;;;;;;21.90;3.30;;;;;;;8.57;100.00;96824.56;5066736;28;19928;-76
2021/12/01 07:17:38;;;;;;;;;;;;;;;8.36;100.00;96800.44;5069522;28;20057;-77
2021/12/01 07:20:06;;;;;;;9.10;2.20;;;;;;;8.50;100.00;96835.22;5076010;28;20377;-77
2021/12/01 07:22:33;;;;;;;;;;;;;;;8.35;100.00;96787.78;5076707;28;20452;-77
2021/12/01 07:25:01;;;;;;;18.13;3.33;;;;;;;8.50;100.00;96836.00;5069626;28;19921;-76
2021/12/01 07:27:28;;;;;;;18.48;2.75;;;;;;;8.98;100.00;96839.88;5071052;28;20065;-77
2021/12/01 07:29:55;;;;;;;13.23;2.47;;;;;;;8.67;100.00;96828.91;5054740;28;20068;-78
2021/12/01 07:32:22;;;;;;;;;;;;;;;8.51;100.00;96840.31;5055290;28;20040;-77
2021/12/01 07:34:49;;;;;;;;;;;;;;;8.46;100.00;96818.69;5056187;28;19920;-76
2021/12/01 07:37:17;;;;;;;;;;;;;;;8.38;100.00;96833.34;5056530;28;19921;-77
2021/12/01 07:39:45;;;;;;;;;;;;;;;8.42;100.00;96847.91;5056389;28;20015;-77
2021/12/01 07:42:12;;;;;;;;;;;;;;;8.29;100.00;96842.47;5056230;28;19931;-77
2021/12/01 07:44:39;;;;;;;;;;;;;;;8.31;100.00;96817.75;5054543;28;19920;-77
2021/12/01 07:47:07;;;;;;;24.33;3.15;;;;;;;8.41;100.00;96826.88;5055545;28;19921;-77
2021/12/01 07:49:34;;;;;;;;;;;;;;;8.39;100.00;96807.84;5071243;28;20047;-77
2021/12/01 07:52:06;;;;;;;20.77;3.03;;;;;;;8.45;100.00;96831.03;5055782;28;20552;-77
2021/12/01 07:54:33;;;;;;;;;;;;;;;8.11;100.00;96808.25;5054726;28;20037;-77
2021/12/01 07:57:01;;;;;;;;;;;;;;;8.58;100.00;96814.22;5088328;28;20378;-77
2021/12/01 07:59:29;;;;;;;16.37;3.00;;;;;;;8.51;100.00;96854.25;5055763;28;19920;-77
2021/12/01 08:01:57;;;;;;;;;;;;;;;8.59;100.00;96854.72;5054738;28;20811;-77
2021/12/01 08:04:24;;;;;;;;;;;;;;;8.47;100.00;96819.44;5054320;28;19920;-77
2021/12/01 08:06:54;;;;;;;;;;;;;;;8.40;100.00;96848.38;5055780;28;19928;-78
2021/12/01 08:09:21;;;;;;;;;;;;;;;8.55;100.00;96843.75;5038192;28;19920;-77
2021/12/01 08:11:48;;;;;;;14.90;3.20;;;;;;;8.39;100.00;96840.50;5055503;28;20419;-77
2021/12/01 08:14:15;;;;;;;;;;;;;;;8.36;100.00;96858.88;5055676;28;20491;-77
2021/12/01 08:16:43;;;;;;;;;;;;;;;8.61;100.00;96877.28;5037922;28;19928;-76
2021/12/01 08:19:10;;;;;;;;;;;;;;;8.51;100.00;96862.59;5064115;28;20371;-78
2021/12/01 08:21:37;;;;;;;;;;;;;;;8.40;100.00;96875.41;5074021;28;19935;-78
2021/12/01 08:24:09;;;;;;;;;;;;;;;8.44;100.00;96882.38;5106698;28;19920;-78
2021/12/01 08:26:37;;;;;;;;;;;;;;;8.45;100.00;96867.22;5075403;28;19966;-78
2021/12/01 08:29:05;;;;;;;;;;;;;;;8.98;100.00;96890.75;5107959;28;19920;-78
2021/12/01 08:31:32;;;;;;;;;;;;;;;8.83;100.00;96881.47;5074488;28;20015;-78
2021/12/01 08:33:59;;;;;;;;;;;;;;;8.44;100.00;96893.50;5075007;28;19953;-78
2021/12/01 08:36:26;;;;;;;;;;;;;;;8.72;100.00;96911.78;5090742;28;20367;-78
2021/12/01 08:38:53;;;;;;;;;;;;;;;8.66;100.00;96926.78;5073963;28;19921;-79
2021/12/01 08:41:21;;;;;;;;;;;;;;;8.69;100.00;96904.34;5074026;28;20372;-78
2021/12/01 08:43:48;;;;;;;;;;;;;;;8.61;100.00;96880.09;5107475;28;20334;-78
2021/12/01 08:46:19;;;;;;;;;;;;;;;8.80;100.00;96915.03;5073879;28;19928;-79
2021/12/01 08:48:47;;;;;;;;;;;;;;;8.96;100.00;96928.69;5073906;28;19970;-79
2021/12/01 08:51:14;;;;;;;;;;;;;;;8.77;100.00;96905.63;5074891;28;19921;-79
2021/12/01 08:53:41;;;;;;;;;;;;;;;8.72;100.00;96881.16;5057085;28;19924;-77
2021/12/01 08:56:10;;;;;;;;;;;;;;;8.96;100.00;96911.97;5074053;28;19925;-77
2021/12/01 08:58:37;;;;;;;;;;;;;;;9.09;100.00;96920.94;5073797;28;19959;-77
2021/12/01 09:01:04;;;;;;;;;;;;;;;8.25;100.00;96942.00;5074697;28;19921;-76
2021/12/01 09:03:32;;;;;;;;;;;;;;;7.76;100.00;96966.16;5073259;28;19924;-77
2021/12/01 09:05:59;;;;;;;;;;;;;;;7.38;100.00;96962.81;5074601;28;20006;-77
2021/12/01 09:08:26;;;;;;;;;;;;;;;7.54;100.00;96967.41;5073381;28;20257;-77
2021/12/01 09:10:54;;;;;;;;;;;;;;;7.69;100.00;96965.66;5074364;28;20008;-77
2021/12/01 09:13:23;;;;;;;;;;;;;;;7.56;100.00;96946.25;5074542;28;20392;-77
2021/12/01 09:15:52;;;;;;;;;;;;;;;7.68;100.00;96970.41;5074378;28;19924;-80
2021/12/01 09:18:23;;;;;;;;;;;;;;;7.85;100.00;96990.44;5073451;28;19943;-79
2021/12/01 09:20:50;;;;;;;;;;;;;;;7.90;100.00;97003.75;5068554;28;20293;-77
2021/12/01 09:23:21;;;;;;;;;;;;;;;8.00;100.00;97003.34;5054409;28;20372;-86
2021/12/01 09:25:48;;;;;;;;;;;;;;;7.89;100.00;96985.53;5053801;28;19936;-79
2021/12/01 09:28:17;;;;;;;;;;;;;;;8.07;100.00;97003.09;5053236;28;19921;-78
2021/12/01 09:30:45;;;;;;;;;;;;;;;7.95;100.00;97001.16;5065674;28;19920;-80
2021/12/01 09:33:12;;;;;;;;;;;;;;;8.29;100.00;96987.16;5056843;28;19920;-80
2021/12/01 09:35:39;;;;;;;;;;;;;;;8.31;100.00;96979.13;5073309;28;20366;-79
2021/12/01 09:38:08;;;;;;;;;;;;;;;8.35;100.00;96979.75;5054614;28;20036;-80
2021/12/01 09:40:35;;;;;;;;;;;;;;;8.44;100.00;96982.56;5056275;28;19921;-80
2021/12/01 09:43:03;;;;;;;;;;;;;;;8.48;100.00;96988.75;5072859;28;19924;-80
2021/12/01 09:45:30;;;;;;;;;;;;;;;8.54;100.00;97002.84;5073511;28;19921;-79
2021/12/01 09:47:58;;;;;;;;;;;;;;;8.55;100.00;96990.47;5072466;28;19943;-80
2021/12/01 09:50:25;;;;;;;;;;;;;;;7.76;100.00;96995.94;5065904;28;19943;-80
2021/12/01 09:52:52;;;;;;;;;;;;;;;8.05;100.00;97011.13;5052389;28;19932;-79
2021/12/01 09:55:19;;;;;;;;;;;;;;;8.22;100.00;97004.13;5053166;28;20383;-80
2021/12/01 09:57:57;;;;;;;;;;;;;;;7.86;100.00;96989.97;5068950;28;19920;-79
2021/12/01 10:00:25;;;;;;;;;;;;;;;8.17;100.00;97023.38;5055770;28;19974;-79
2021/12/01 10:02:52;;;;;;;;;;;;;;;8.65;100.00;97020.66;5054824;28;20341;-79
2021/12/01 10:05:38;;;;;;;;;;;;;;;8.39;100.00;97016.53;5057513;28;19929;-79
2021/12/01 10:08:09;;;;;;;;;;;;;;;8.32;100.00;97018.84;5057026;28;19967;-79
2021/12/01 10:10:37;;;;;;;;;;;;;;;8.43;100.00;97011.63;5053681;28;20294;-79
2021/12/01 10:13:04;;;;;;;;;;;;;;;8.53;100.00;97031.91;5056176;28;20425;-80
2021/12/01 10:15:32;;;;;;;;;;;;;;;8.38;100.00;97034.47;5050934;28;19920;-79
2021/12/01 10:18:13;;;;;;;;;;;;;;;8.58;100.00;97037.66;5037596;28;20342;-79
2021/12/01 10:20:55;;;;;;;;;;;;;;;8.44;100.00;97037.44;5054576;28;19925;-78
2021/12/01 10:23:24;;;;;;;;;;;;;;;8.62;100.00;97038.28;5052685;28;19970;-78
2021/12/01 10:25:51;;;;;;;;;;;;;;;8.78;100.00;97034.47;5068127;28;20335;-77
2021/12/01 10:28:32;;;;;;;;;;;;;;;8.94;100.00;97032.19;5049307;28;20399;-77
2021/12/01 10:31:00;;;;;;;;;;;;;;;8.83;100.00;97012.34;5053460;28;20007;-77
2021/12/01 10:33:28;;;;;;;;;;;;;;;9.03;100.00;97039.78;5085665;28;19963;-77
2021/12/01 10:35:56;;;;;;;;;;;;;;;8.89;100.00;97024.44;5053385;28;19924;-77
2021/12/01 10:38:32;;;;;;;;;;;;;;;8.56;100.00;97022.63;5053253;28;20029;-77
2021/12/01 10:41:00;;;;;;;;;;;;;;;9.10;100.00;97023.53;5053441;28;19920;-78
2021/12/01 10:43:54;;;;;;;;;;;;;;;8.96;100.00;97035.28;5035502;28;19928;-78
2021/12/01 10:46:21;;;;;;;;;;;;;;;8.88;100.00;97027.69;5037006;28;20352;-77
2021/12/01 10:49:02;;;;;;;;;;;;;;;9.05;100.00;97026.16;5053405;28;20354;-77
2021/12/01 10:51:37;;;;;;;;;;;;;;;8.68;100.00;97018.97;5085589;28;19925;-76
2021/12/01 10:54:12;;;;;;;;;;;;;;;8.56;100.00;97023.41;5085897;28;19920;-77
2021/12/01 10:56:39;;;;;;;;;;;;;;;8.71;100.00;97035.53;5068688;28;19966;-77
2021/12/01 10:59:11;;;;;;;;;;;;;;;8.60;100.00;97024.03;5054676;28;19928;-76
2021/12/01 11:01:38;;;;;;;;;;;;;;;8.85;100.00;97034.94;5071950;28;19970;-76
2021/12/01 11:04:06;;;;;;;;;;;;;;;9.46;100.00;97041.53;5073058;28;19943;-78
2021/12/01 11:06:39;;;;;;;;;;;;;;;9.02;100.00;97027.88;5071975;28;19924;-77
2021/12/01 11:09:07;;;;;;;;;;;;;;;9.15;100.00;97036.09;5073141;28;19952;-77
2021/12/01 11:11:39;;;;;;;;;;;;;;;9.05;100.00;97042.88;5072807;28;20011;-77
2021/12/01 11:14:26;;;;;;;;;;;;;;;9.11;100.00;97039.03;5072845;28;19921;-77
2021/12/01 11:16:53;;;;;;;;;;;;;;;9.05;100.00;97026.94;5071901;28;19928;-78
2021/12/01 11:19:32;;;;;;;;;;;;;;;8.74;100.00;97026.25;5074176;28;20010;-77
2021/12/01 11:22:34;;;;;;;;;;;;;;;9.15;100.00;97031.28;5038739;28;20276;-77
2021/12/01 11:25:22;;;;;;;;;;;;;;;9.08;100.00;97031.59;5065635;28;19984;-77
2021/12/01 11:27:49;;;;;;;;;;;;;;;9.05;100.00;97040.88;5056330;28;20276;-77
2021/12/01 11:30:16;;;;;;;;;;;;;;;9.54;100.00;97045.56;5071856;28;19927;-77
2021/12/01 11:32:44;;;;;;;;;;;;;;;8.95;100.00;97047.66;5056500;28;19921;-76
2021/12/01 11:35:12;;;;;;;;;;;;;;;8.92;100.00;97043.00;5088311;28;19921;-77
2021/12/01 11:37:39;;;;;;;;;;;;;;;9.28;100.00;97041.53;5057087;28;19927;-77
2021/12/01 11:40:06;;;;;;;;;;;;;;;9.32;100.00;97033.78;5056429;28;19994;-76
2021/12/01 11:42:34;;;;;;;;;;;;;;;9.28;100.00;97039.53;5056049;28;19925;-77
2021/12/01 11:45:01;;;;;;;;;;;;;;;9.19;100.00;97043.06;5055194;28;20011;-76
2021/12/01 11:47:28;;;;;;;;;;;;;;;9.31;100.00;97044.16;5088499;28;19928;-76
2021/12/01 11:49:58;;;;;;;;;;;;;;;9.36;100.00;97040.00;5054488;28;19921;-76
2021/12/01 11:52:33;;;;;;;;;;;;;;;9.10;100.00;97040.25;5056216;28;19973;-76
2021/12/01 11:55:00;;;;;;;;;;;;;;;8.98;100.00;97032.81;5055363;28;19920;-75
2021/12/01 11:57:37;;;;;;;;;;;;;;;9.40;100.00;97027.44;5054067;28;19924;-76
2021/12/01 12:00:04;;;;;;;;;;;;;;;9.56;100.00;97032.69;5055020;28;19968;-76
2021/12/01 12:02:38;;;;;;;;;;;;;;;9.15;100.00;97025.72;5055117;28;20023;-75
2021/12/01 12:05:15;;;;;;;;;;;;;;;9.51;100.00;97032.56;5057063;28;19920;-76
2021/12/01 12:07:44;;;;;;;;;;;;;;;9.63;100.00;97037.97;5053948;28;19920;-77
2021/12/01 12:10:13;;;;;;;;;;;;;;;9.17;100.00;97061.47;5055696;28;20412;-77
2021/12/01 12:13:04;;;;;;;;;;;;;;;9.54;100.00;97051.13;5054777;28;19920;-77
2021/12/01 12:15:40;;;;;;;;;;;;;;;10.07;100.00;97032.84;5056200;28;20351;-77
2021/12/01 12:18:09;;;;;;;;;;;;;;;9.74;100.00;97043.09;5055207;28;19920;-76
2021/12/01 12:20:44;;;;;;;;;;;;;;;10.11;100.00;97058.53;5055975;28;19921;-77
2021/12/01 12:23:12;;;;;;;;;;;;;;;10.20;100.00;97064.09;5053930;28;20283;-78
2021/12/01 12:25:41;;;;;;;;;;;;;;;9.64;100.00;97077.78;5054954;28;19920;-78
2021/12/01 12:28:21;;;;;;;;;;;;;;;9.37;100.00;97074.97;5054421;28;19928;-79
2021/12/01 12:30:48;;;;;;;;;;;;;;;9.24;100.00;97079.91;5055782;28;19925;-78
2021/12/01 12:33:24;;;;;;;;;;;;;;;9.70;100.00;97075.91;5055648;28;19983;-78
2021/12/01 12:35:56;;;;;;;;;;;;;;;9.58;100.00;97063.69;5087823;28;19921;-78
2021/12/01 12:38:24;;;;;;;;;;;;;;;9.44;100.00;97066.28;5055691;28;19925;-78